sensor_id;sensor_type;location;lat;lon;timestamp;P1;durP1;ratioP1;P2;durP2;ratioP2
72319;SDS011;60269;52.502;16.732;2022-10-13T00:02:30;35.47;;;13.40;;
72319;SDS011;60269;52.502;16.732;2022-10-13T00:06:03;30.65;;;12.80;;
72319;SDS011;60269;52.502;16.732;2022-10-13T00:09:38;29.90;;;12.30;;
72319;SDS011;60269;52.502;16.732;2022-10-13T00:13:10;35.33;;;12.93;;
72319;SDS011;60269;52.502;16.732;2022-10-13T00:16:43;33.88;;;12.48;;
72319;SDS011;60269;52.502;16.732;2022-10-13T00:20:14;35.28;;;13.55;;
72319;SDS011;60269;52.502;16.732;2022-10-13T00:23:47;31.73;;;12.40;;
72319;SDS011;60269;52.502;16.732;2022-10-13T00:27:19;37.58;;;13.35;;
72319;SDS011;60269;52.502;16.732;2022-10-13T00:30:51;31.42;;;12.77;;
72319;SDS011;60269;52.502;16.732;2022-10-13T00:34:22;34.50;;;12.13;;
72319;SDS011;60269;52.502;16.732;2022-10-13T00:37:54;35.23;;;13.13;;
72319;SDS011;60269;52.502;16.732;2022-10-13T00:41:26;31.92;;;12.57;;
72319;SDS011;60269;52.502;16.732;2022-10-13T00:45:05;31.27;;;12.07;;
72319;SDS011;60269;52.502;16.732;2022-10-13T00:48:54;36.20;;;12.97;;
72319;SDS011;60269;52.502;16.732;2022-10-13T00:52:29;29.30;;;11.97;;
72319;SDS011;60269;52.502;16.732;2022-10-13T00:56:02;33.33;;;13.43;;
72319;SDS011;60269;52.502;16.732;2022-10-13T00:59:35;28.25;;;12.23;;
72319;SDS011;60269;52.502;16.732;2022-10-13T01:03:09;39.00;;;13.23;;
72319;SDS011;60269;52.502;16.732;2022-10-13T01:06:41;34.00;;;12.70;;
72319;SDS011;60269;52.502;16.732;2022-10-13T01:10:15;35.65;;;14.27;;
72319;SDS011;60269;52.502;16.732;2022-10-13T01:14:02;33.60;;;12.40;;
72319;SDS011;60269;52.502;16.732;2022-10-13T01:33:30;36.78;;;14.02;;
72319;SDS011;60269;52.502;16.732;2022-10-13T01:40:58;32.27;;;13.13;;
72319;SDS011;60269;52.502;16.732;2022-10-13T01:44:35;32.83;;;13.38;;
72319;SDS011;60269;52.502;16.732;2022-10-13T01:48:11;41.55;;;15.82;;
72319;SDS011;60269;52.502;16.732;2022-10-13T01:51:45;33.92;;;13.57;;
72319;SDS011;60269;52.502;16.732;2022-10-13T01:55:17;37.83;;;14.70;;
72319;SDS011;60269;52.502;16.732;2022-10-13T01:58:49;37.60;;;13.57;;
72319;SDS011;60269;52.502;16.732;2022-10-13T02:02:31;41.85;;;14.10;;
72319;SDS011;60269;52.502;16.732;2022-10-13T02:10:13;37.47;;;13.57;;
72319;SDS011;60269;52.502;16.732;2022-10-13T02:13:56;30.40;;;12.95;;
72319;SDS011;60269;52.502;16.732;2022-10-13T02:17:32;34.08;;;14.13;;
72319;SDS011;60269;52.502;16.732;2022-10-13T02:21:05;35.87;;;14.17;;
72319;SDS011;60269;52.502;16.732;2022-10-13T02:24:37;36.55;;;14.35;;
72319;SDS011;60269;52.502;16.732;2022-10-13T02:28:09;36.28;;;13.93;;
72319;SDS011;60269;52.502;16.732;2022-10-13T02:31:44;31.17;;;12.97;;
72319;SDS011;60269;52.502;16.732;2022-10-13T02:35:17;37.25;;;15.38;;
72319;SDS011;60269;52.502;16.732;2022-10-13T02:38:48;32.70;;;14.73;;
72319;SDS011;60269;52.502;16.732;2022-10-13T02:42:20;38.20;;;14.43;;
72319;SDS011;60269;52.502;16.732;2022-10-13T02:45:53;32.90;;;13.97;;
72319;SDS011;60269;52.502;16.732;2022-10-13T02:49:25;40.10;;;13.75;;
72319;SDS011;60269;52.502;16.732;2022-10-13T02:52:56;30.88;;;13.15;;
72319;SDS011;60269;52.502;16.732;2022-10-13T02:56:28;39.63;;;15.23;;
72319;SDS011;60269;52.502;16.732;2022-10-13T03:00:00;31.20;;;13.57;;
72319;SDS011;60269;52.502;16.732;2022-10-13T03:03:32;32.67;;;14.20;;
72319;SDS011;60269;52.502;16.732;2022-10-13T03:07:04;41.30;;;15.02;;
72319;SDS011;60269;52.502;16.732;2022-10-13T03:10:36;35.27;;;13.50;;
72319;SDS011;60269;52.502;16.732;2022-10-13T03:14:08;37.70;;;14.57;;
72319;SDS011;60269;52.502;16.732;2022-10-13T03:17:40;40.83;;;14.38;;
72319;SDS011;60269;52.502;16.732;2022-10-13T03:21:12;37.57;;;16.13;;
72319;SDS011;60269;52.502;16.732;2022-10-13T03:24:44;37.55;;;14.80;;
72319;SDS011;60269;52.502;16.732;2022-10-13T03:28:16;38.80;;;15.48;;
72319;SDS011;60269;52.502;16.732;2022-10-13T03:31:48;33.92;;;14.75;;
72319;SDS011;60269;52.502;16.732;2022-10-13T03:35:20;31.47;;;14.50;;
72319;SDS011;60269;52.502;16.732;2022-10-13T03:38:51;42.17;;;15.65;;
72319;SDS011;60269;52.502;16.732;2022-10-13T03:42:23;34.75;;;15.38;;
72319;SDS011;60269;52.502;16.732;2022-10-13T03:45:56;45.77;;;16.23;;
72319;SDS011;60269;52.502;16.732;2022-10-13T03:49:29;42.33;;;17.70;;
72319;SDS011;60269;52.502;16.732;2022-10-13T03:53:01;38.15;;;16.23;;
72319;SDS011;60269;52.502;16.732;2022-10-13T03:56:33;36.47;;;16.77;;
72319;SDS011;60269;52.502;16.732;2022-10-13T04:00:05;37.03;;;16.33;;
72319;SDS011;60269;52.502;16.732;2022-10-13T04:03:41;38.17;;;16.48;;
72319;SDS011;60269;52.502;16.732;2022-10-13T04:07:13;38.42;;;16.60;;
72319;SDS011;60269;52.502;16.732;2022-10-13T04:10:44;43.42;;;16.45;;
72319;SDS011;60269;52.502;16.732;2022-10-13T04:14:17;36.03;;;15.60;;
72319;SDS011;60269;52.502;16.732;2022-10-13T04:17:49;31.58;;;14.90;;
72319;SDS011;60269;52.502;16.732;2022-10-13T04:21:21;39.03;;;16.55;;
72319;SDS011;60269;52.502;16.732;2022-10-13T04:24:54;38.60;;;14.77;;
72319;SDS011;60269;52.502;16.732;2022-10-13T04:28:26;34.85;;;15.45;;
72319;SDS011;60269;52.502;16.732;2022-10-13T04:31:58;41.13;;;17.20;;
72319;SDS011;60269;52.502;16.732;2022-10-13T04:35:30;45.70;;;17.58;;
72319;SDS011;60269;52.502;16.732;2022-10-13T04:39:02;42.83;;;17.13;;
72319;SDS011;60269;52.502;16.732;2022-10-13T04:42:34;43.10;;;17.95;;
72319;SDS011;60269;52.502;16.732;2022-10-13T04:46:13;43.00;;;16.50;;
72319;SDS011;60269;52.502;16.732;2022-10-13T04:49:53;48.70;;;17.70;;
72319;SDS011;60269;52.502;16.732;2022-10-13T04:53:24;38.85;;;16.73;;
72319;SDS011;60269;52.502;16.732;2022-10-13T04:56:59;40.55;;;17.77;;
72319;SDS011;60269;52.502;16.732;2022-10-13T05:00:31;46.83;;;16.65;;
72319;SDS011;60269;52.502;16.732;2022-10-13T05:04:03;44.97;;;17.40;;
72319;SDS011;60269;52.502;16.732;2022-10-13T05:07:36;43.67;;;17.40;;
72319;SDS011;60269;52.502;16.732;2022-10-13T05:11:08;40.15;;;16.48;;
72319;SDS011;60269;52.502;16.732;2022-10-13T05:14:40;39.20;;;16.57;;
72319;SDS011;60269;52.502;16.732;2022-10-13T05:18:12;41.45;;;16.35;;
72319;SDS011;60269;52.502;16.732;2022-10-13T05:21:43;41.33;;;17.63;;
72319;SDS011;60269;52.502;16.732;2022-10-13T05:25:15;44.00;;;18.67;;
72319;SDS011;60269;52.502;16.732;2022-10-13T05:28:47;46.93;;;18.00;;
72319;SDS011;60269;52.502;16.732;2022-10-13T05:32:20;40.00;;;17.83;;
72319;SDS011;60269;52.502;16.732;2022-10-13T05:35:52;37.70;;;16.88;;
72319;SDS011;60269;52.502;16.732;2022-10-13T05:39:24;38.07;;;16.00;;
72319;SDS011;60269;52.502;16.732;2022-10-13T05:42:57;36.63;;;14.27;;
72319;SDS011;60269;52.502;16.732;2022-10-13T05:46:29;39.15;;;16.55;;
72319;SDS011;60269;52.502;16.732;2022-10-13T05:50:01;39.60;;;15.65;;
72319;SDS011;60269;52.502;16.732;2022-10-13T05:53:34;38.60;;;15.57;;
72319;SDS011;60269;52.502;16.732;2022-10-13T05:57:18;37.58;;;15.13;;
72319;SDS011;60269;52.502;16.732;2022-10-13T06:00:56;37.60;;;14.35;;
72319;SDS011;60269;52.502;16.732;2022-10-13T06:04:33;30.60;;;14.33;;
72319;SDS011;60269;52.502;16.732;2022-10-13T06:08:08;35.88;;;15.00;;
72319;SDS011;60269;52.502;16.732;2022-10-13T06:11:40;32.30;;;13.35;;
72319;SDS011;60269;52.502;16.732;2022-10-13T06:15:12;34.42;;;14.05;;
72319;SDS011;60269;52.502;16.732;2022-10-13T06:18:44;35.87;;;15.33;;
72319;SDS011;60269;52.502;16.732;2022-10-13T06:22:16;26.83;;;12.68;;
72319;SDS011;60269;52.502;16.732;2022-10-13T06:25:48;30.30;;;14.15;;
72319;SDS011;60269;52.502;16.732;2022-10-13T06:29:23;32.50;;;13.53;;
72319;SDS011;60269;52.502;16.732;2022-10-13T06:32:55;29.92;;;13.48;;
72319;SDS011;60269;52.502;16.732;2022-10-13T06:36:27;30.60;;;13.43;;
72319;SDS011;60269;52.502;16.732;2022-10-13T06:40:01;30.35;;;13.60;;
72319;SDS011;60269;52.502;16.732;2022-10-13T06:43:33;31.23;;;13.30;;
72319;SDS011;60269;52.502;16.732;2022-10-13T06:47:11;26.05;;;12.52;;
72319;SDS011;60269;52.502;16.732;2022-10-13T06:50:43;33.55;;;12.52;;
72319;SDS011;60269;52.502;16.732;2022-10-13T06:54:15;28.37;;;11.47;;
72319;SDS011;60269;52.502;16.732;2022-10-13T06:57:47;26.63;;;12.27;;
72319;SDS011;60269;52.502;16.732;2022-10-13T07:01:19;25.42;;;12.43;;
72319;SDS011;60269;52.502;16.732;2022-10-13T07:04:51;31.67;;;12.18;;
72319;SDS011;60269;52.502;16.732;2022-10-13T07:08:23;23.13;;;11.00;;
72319;SDS011;60269;52.502;16.732;2022-10-13T07:11:56;26.93;;;11.50;;
72319;SDS011;60269;52.502;16.732;2022-10-13T07:15:28;31.92;;;12.25;;
72319;SDS011;60269;52.502;16.732;2022-10-13T07:19:00;28.45;;;11.32;;
72319;SDS011;60269;52.502;16.732;2022-10-13T07:22:32;26.10;;;10.83;;
72319;SDS011;60269;52.502;16.732;2022-10-13T07:26:07;25.63;;;11.80;;
72319;SDS011;60269;52.502;16.732;2022-10-13T07:29:41;31.75;;;12.43;;
72319;SDS011;60269;52.502;16.732;2022-10-13T07:33:13;25.67;;;11.80;;
72319;SDS011;60269;52.502;16.732;2022-10-13T07:36:45;27.90;;;11.13;;
72319;SDS011;60269;52.502;16.732;2022-10-13T07:40:17;22.77;;;11.13;;
72319;SDS011;60269;52.502;16.732;2022-10-13T07:43:52;27.42;;;11.48;;
72319;SDS011;60269;52.502;16.732;2022-10-13T07:47:25;40.72;;;12.68;;
72319;SDS011;60269;52.502;16.732;2022-10-13T07:50:57;27.60;;;11.17;;
72319;SDS011;60269;52.502;16.732;2022-10-13T07:54:29;26.53;;;11.27;;
72319;SDS011;60269;52.502;16.732;2022-10-13T07:58:02;25.92;;;11.35;;
72319;SDS011;60269;52.502;16.732;2022-10-13T08:01:35;31.92;;;11.73;;
72319;SDS011;60269;52.502;16.732;2022-10-13T08:05:07;27.03;;;11.47;;
72319;SDS011;60269;52.502;16.732;2022-10-13T08:08:39;24.27;;;11.23;;
72319;SDS011;60269;52.502;16.732;2022-10-13T08:12:11;26.25;;;9.95;;
72319;SDS011;60269;52.502;16.732;2022-10-13T08:15:43;25.08;;;9.43;;
72319;SDS011;60269;52.502;16.732;2022-10-13T08:19:15;20.75;;;9.20;;
72319;SDS011;60269;52.502;16.732;2022-10-13T08:22:48;23.37;;;10.60;;
72319;SDS011;60269;52.502;16.732;2022-10-13T08:26:24;23.20;;;9.95;;
72319;SDS011;60269;52.502;16.732;2022-10-13T08:29:58;21.25;;;9.27;;
72319;SDS011;60269;52.502;16.732;2022-10-13T08:33:30;30.80;;;10.98;;
72319;SDS011;60269;52.502;16.732;2022-10-13T08:37:02;22.50;;;9.47;;
72319;SDS011;60269;52.502;16.732;2022-10-13T08:40:34;25.80;;;8.48;;
72319;SDS011;60269;52.502;16.732;2022-10-13T08:44:20;28.08;;;8.60;;
72319;SDS011;60269;52.502;16.732;2022-10-13T08:48:20;23.02;;;9.10;;
72319;SDS011;60269;52.502;16.732;2022-10-13T08:51:55;21.40;;;8.57;;
72319;SDS011;60269;52.502;16.732;2022-10-13T08:55:30;20.20;;;6.90;;
72319;SDS011;60269;52.502;16.732;2022-10-13T08:59:09;20.48;;;8.07;;
72319;SDS011;60269;52.502;16.732;2022-10-13T09:02:45;17.27;;;8.10;;
72319;SDS011;60269;52.502;16.732;2022-10-13T09:06:19;21.87;;;7.73;;
72319;SDS011;60269;52.502;16.732;2022-10-13T09:09:59;18.50;;;7.32;;
72319;SDS011;60269;52.502;16.732;2022-10-13T09:13:31;20.77;;;7.57;;
72319;SDS011;60269;52.502;16.732;2022-10-13T09:17:14;17.23;;;8.00;;
72319;SDS011;60269;52.502;16.732;2022-10-13T09:20:49;28.93;;;6.70;;
72319;SDS011;60269;52.502;16.732;2022-10-13T09:24:21;18.35;;;7.28;;
72319;SDS011;60269;52.502;16.732;2022-10-13T09:27:59;18.60;;;7.88;;
72319;SDS011;60269;52.502;16.732;2022-10-13T09:31:39;18.95;;;7.15;;
72319;SDS011;60269;52.502;16.732;2022-10-13T09:35:15;16.33;;;6.50;;
72319;SDS011;60269;52.502;16.732;2022-10-13T09:42:43;20.50;;;7.97;;
72319;SDS011;60269;52.502;16.732;2022-10-13T09:46:22;19.83;;;7.15;;
72319;SDS011;60269;52.502;16.732;2022-10-13T09:50:13;17.50;;;6.60;;
72319;SDS011;60269;52.502;16.732;2022-10-13T09:53:47;18.23;;;7.37;;
72319;SDS011;60269;52.502;16.732;2022-10-13T10:01:18;16.05;;;7.13;;
72319;SDS011;60269;52.502;16.732;2022-10-13T10:04:55;15.75;;;7.20;;
72319;SDS011;60269;52.502;16.732;2022-10-13T10:12:40;17.02;;;7.05;;
72319;SDS011;60269;52.502;16.732;2022-10-13T10:16:18;18.50;;;7.22;;
72319;SDS011;60269;52.502;16.732;2022-10-13T10:28:04;18.73;;;6.70;;
72319;SDS011;60269;52.502;16.732;2022-10-13T10:32:03;20.60;;;6.95;;
72319;SDS011;60269;52.502;16.732;2022-10-13T10:43:49;15.20;;;5.87;;
72319;SDS011;60269;52.502;16.732;2022-10-13T10:47:26;14.13;;;6.55;;
72319;SDS011;60269;52.502;16.732;2022-10-13T10:51:01;14.50;;;6.25;;
72319;SDS011;60269;52.502;16.732;2022-10-13T10:54:43;21.10;;;7.15;;
72319;SDS011;60269;52.502;16.732;2022-10-13T10:58:31;13.73;;;6.50;;
72319;SDS011;60269;52.502;16.732;2022-10-13T11:13:21;15.88;;;5.93;;
72319;SDS011;60269;52.502;16.732;2022-10-13T11:17:08;14.00;;;5.60;;
72319;SDS011;60269;52.502;16.732;2022-10-13T11:20:47;14.23;;;5.53;;
72319;SDS011;60269;52.502;16.732;2022-10-13T11:31:54;15.57;;;6.03;;
72319;SDS011;60269;52.502;16.732;2022-10-13T11:35:26;15.10;;;5.80;;
72319;SDS011;60269;52.502;16.732;2022-10-13T11:42:58;14.80;;;5.07;;
72319;SDS011;60269;52.502;16.732;2022-10-13T11:46:49;13.75;;;5.30;;
72319;SDS011;60269;52.502;16.732;2022-10-13T11:50:48;14.38;;;5.75;;
72319;SDS011;60269;52.502;16.732;2022-10-13T11:54:34;15.47;;;5.30;;
72319;SDS011;60269;52.502;16.732;2022-10-13T11:58:14;11.75;;;5.22;;
72319;SDS011;60269;52.502;16.732;2022-10-13T12:01:53;17.45;;;6.28;;
72319;SDS011;60269;52.502;16.732;2022-10-13T12:05:46;17.67;;;5.75;;
72319;SDS011;60269;52.502;16.732;2022-10-13T12:09:19;17.80;;;4.93;;
72319;SDS011;60269;52.502;16.732;2022-10-13T12:12:52;14.83;;;5.40;;
72319;SDS011;60269;52.502;16.732;2022-10-13T12:16:24;12.77;;;5.65;;
72319;SDS011;60269;52.502;16.732;2022-10-13T12:20:02;13.18;;;5.35;;
72319;SDS011;60269;52.502;16.732;2022-10-13T12:23:49;14.73;;;4.50;;
72319;SDS011;60269;52.502;16.732;2022-10-13T12:27:22;19.13;;;4.90;;
72319;SDS011;60269;52.502;16.732;2022-10-13T12:30:55;14.57;;;4.80;;
72319;SDS011;60269;52.502;16.732;2022-10-13T12:34:30;11.43;;;4.47;;
72319;SDS011;60269;52.502;16.732;2022-10-13T12:38:05;11.88;;;4.32;;
72319;SDS011;60269;52.502;16.732;2022-10-13T12:41:45;11.30;;;4.22;;
72319;SDS011;60269;52.502;16.732;2022-10-13T12:45:19;10.33;;;4.20;;
72319;SDS011;60269;52.502;16.732;2022-10-13T12:49:02;11.98;;;4.43;;
72319;SDS011;60269;52.502;16.732;2022-10-13T12:52:35;13.50;;;4.60;;
72319;SDS011;60269;52.502;16.732;2022-10-13T12:56:16;14.40;;;4.38;;
72319;SDS011;60269;52.502;16.732;2022-10-13T12:59:50;12.20;;;4.10;;
72319;SDS011;60269;52.502;16.732;2022-10-13T13:03:24;10.63;;;4.60;;
72319;SDS011;60269;52.502;16.732;2022-10-13T13:07:00;16.60;;;4.82;;
72319;SDS011;60269;52.502;16.732;2022-10-13T13:10:34;14.38;;;5.40;;
72319;SDS011;60269;52.502;16.732;2022-10-13T13:14:22;17.15;;;4.70;;
72319;SDS011;60269;52.502;16.732;2022-10-13T13:18:20;12.23;;;4.50;;
72319;SDS011;60269;52.502;16.732;2022-10-13T13:21:55;14.30;;;4.57;;
72319;SDS011;60269;52.502;16.732;2022-10-13T13:25:27;10.63;;;4.95;;
72319;SDS011;60269;52.502;16.732;2022-10-13T13:28:59;13.40;;;4.43;;
72319;SDS011;60269;52.502;16.732;2022-10-13T13:32:30;13.60;;;4.20;;
72319;SDS011;60269;52.502;16.732;2022-10-13T13:36:03;11.20;;;4.30;;
72319;SDS011;60269;52.502;16.732;2022-10-13T13:39:36;14.00;;;4.88;;
72319;SDS011;60269;52.502;16.732;2022-10-13T13:43:07;16.77;;;5.03;;
72319;SDS011;60269;52.502;16.732;2022-10-13T13:46:40;18.37;;;4.90;;
72319;SDS011;60269;52.502;16.732;2022-10-13T13:50:22;22.03;;;5.10;;
72319;SDS011;60269;52.502;16.732;2022-10-13T13:53:55;16.20;;;5.85;;
72319;SDS011;60269;52.502;16.732;2022-10-13T13:57:27;11.57;;;5.45;;
72319;SDS011;60269;52.502;16.732;2022-10-13T14:00:59;13.57;;;6.57;;
72319;SDS011;60269;52.502;16.732;2022-10-13T14:04:31;13.80;;;5.27;;
72319;SDS011;60269;52.502;16.732;2022-10-13T14:08:06;15.17;;;6.30;;
72319;SDS011;60269;52.502;16.732;2022-10-13T14:11:38;18.02;;;6.38;;
72319;SDS011;60269;52.502;16.732;2022-10-13T14:15:11;15.63;;;6.15;;
72319;SDS011;60269;52.502;16.732;2022-10-13T14:18:43;14.02;;;5.50;;
72319;SDS011;60269;52.502;16.732;2022-10-13T14:22:15;14.83;;;5.40;;
72319;SDS011;60269;52.502;16.732;2022-10-13T14:25:46;15.93;;;5.72;;
72319;SDS011;60269;52.502;16.732;2022-10-13T14:29:18;12.52;;;5.65;;
72319;SDS011;60269;52.502;16.732;2022-10-13T14:32:50;14.35;;;5.18;;
72319;SDS011;60269;52.502;16.732;2022-10-13T14:36:22;14.73;;;5.83;;
72319;SDS011;60269;52.502;16.732;2022-10-13T14:39:54;13.90;;;5.40;;
72319;SDS011;60269;52.502;16.732;2022-10-13T14:43:26;12.73;;;5.50;;
72319;SDS011;60269;52.502;16.732;2022-10-13T14:46:58;12.40;;;4.63;;
72319;SDS011;60269;52.502;16.732;2022-10-13T14:50:30;13.90;;;4.80;;
72319;SDS011;60269;52.502;16.732;2022-10-13T14:54:02;14.03;;;5.83;;
72319;SDS011;60269;52.502;16.732;2022-10-13T14:57:35;14.37;;;5.67;;
72319;SDS011;60269;52.502;16.732;2022-10-13T15:01:07;14.98;;;5.35;;
72319;SDS011;60269;52.502;16.732;2022-10-13T15:04:38;14.85;;;5.88;;
72319;SDS011;60269;52.502;16.732;2022-10-13T15:08:10;19.95;;;5.75;;
72319;SDS011;60269;52.502;16.732;2022-10-13T15:11:42;22.30;;;6.60;;
72319;SDS011;60269;52.502;16.732;2022-10-13T15:15:16;13.88;;;5.10;;
72319;SDS011;60269;52.502;16.732;2022-10-13T15:18:49;19.38;;;6.32;;
72319;SDS011;60269;52.502;16.732;2022-10-13T15:22:21;18.45;;;5.47;;
72319;SDS011;60269;52.502;16.732;2022-10-13T15:25:55;18.20;;;7.77;;
72319;SDS011;60269;52.502;16.732;2022-10-13T15:29:30;24.07;;;7.40;;
72319;SDS011;60269;52.502;16.732;2022-10-13T15:33:02;24.30;;;7.32;;
72319;SDS011;60269;52.502;16.732;2022-10-13T15:36:34;18.05;;;5.50;;
72319;SDS011;60269;52.502;16.732;2022-10-13T15:40:06;19.10;;;6.15;;
72319;SDS011;60269;52.502;16.732;2022-10-13T15:43:39;21.43;;;5.57;;
72319;SDS011;60269;52.502;16.732;2022-10-13T15:47:11;15.90;;;5.82;;
72319;SDS011;60269;52.502;16.732;2022-10-13T15:50:47;19.13;;;5.88;;
72319;SDS011;60269;52.502;16.732;2022-10-13T15:54:20;15.33;;;6.50;;
72319;SDS011;60269;52.502;16.732;2022-10-13T15:57:52;20.03;;;6.27;;
72319;SDS011;60269;52.502;16.732;2022-10-13T16:01:24;16.02;;;6.47;;
72319;SDS011;60269;52.502;16.732;2022-10-13T16:04:55;16.52;;;6.18;;
72319;SDS011;60269;52.502;16.732;2022-10-13T16:08:28;17.87;;;6.03;;
72319;SDS011;60269;52.502;16.732;2022-10-13T16:12:00;18.10;;;6.20;;
72319;SDS011;60269;52.502;16.732;2022-10-13T16:15:32;15.20;;;7.55;;
72319;SDS011;60269;52.502;16.732;2022-10-13T16:19:04;22.77;;;7.88;;
72319;SDS011;60269;52.502;16.732;2022-10-13T16:22:36;21.23;;;8.40;;
72319;SDS011;60269;52.502;16.732;2022-10-13T16:26:08;19.83;;;7.83;;
72319;SDS011;60269;52.502;16.732;2022-10-13T16:29:41;26.95;;;10.88;;
72319;SDS011;60269;52.502;16.732;2022-10-13T16:33:12;20.05;;;9.30;;
72319;SDS011;60269;52.502;16.732;2022-10-13T16:36:44;20.88;;;7.88;;
72319;SDS011;60269;52.502;16.732;2022-10-13T16:40:16;20.03;;;7.70;;
72319;SDS011;60269;52.502;16.732;2022-10-13T16:43:48;21.40;;;8.02;;
72319;SDS011;60269;52.502;16.732;2022-10-13T16:47:20;22.70;;;9.43;;
72319;SDS011;60269;52.502;16.732;2022-10-13T16:50:52;29.17;;;9.52;;
72319;SDS011;60269;52.502;16.732;2022-10-13T16:54:24;26.40;;;10.93;;
72319;SDS011;60269;52.502;16.732;2022-10-13T16:57:56;33.58;;;12.60;;
72319;SDS011;60269;52.502;16.732;2022-10-13T17:01:28;31.98;;;11.85;;
72319;SDS011;60269;52.502;16.732;2022-10-13T17:05:04;26.80;;;12.02;;
72319;SDS011;60269;52.502;16.732;2022-10-13T17:08:36;28.60;;;12.03;;
72319;SDS011;60269;52.502;16.732;2022-10-13T17:12:08;27.20;;;10.57;;
72319;SDS011;60269;52.502;16.732;2022-10-13T17:15:47;24.45;;;10.68;;
72319;SDS011;60269;52.502;16.732;2022-10-13T17:19:20;26.10;;;10.80;;
72319;SDS011;60269;52.502;16.732;2022-10-13T17:22:52;26.27;;;9.63;;
72319;SDS011;60269;52.502;16.732;2022-10-13T17:26:25;32.63;;;11.63;;
72319;SDS011;60269;52.502;16.732;2022-10-13T17:29:57;25.38;;;11.05;;
72319;SDS011;60269;52.502;16.732;2022-10-13T17:33:30;25.27;;;10.70;;
72319;SDS011;60269;52.502;16.732;2022-10-13T17:37:03;23.97;;;9.87;;
72319;SDS011;60269;52.502;16.732;2022-10-13T17:40:35;28.85;;;11.10;;
72319;SDS011;60269;52.502;16.732;2022-10-13T17:44:08;21.20;;;9.30;;
72319;SDS011;60269;52.502;16.732;2022-10-13T17:47:50;24.73;;;9.90;;
72319;SDS011;60269;52.502;16.732;2022-10-13T17:51:29;24.13;;;10.03;;
72319;SDS011;60269;52.502;16.732;2022-10-13T17:55:00;23.65;;;9.95;;
72319;SDS011;60269;52.502;16.732;2022-10-13T17:58:36;26.88;;;10.20;;
72319;SDS011;60269;52.502;16.732;2022-10-13T18:02:09;28.27;;;10.57;;
72319;SDS011;60269;52.502;16.732;2022-10-13T18:05:41;20.97;;;9.47;;
72319;SDS011;60269;52.502;16.732;2022-10-13T18:09:14;22.30;;;9.30;;
72319;SDS011;60269;52.502;16.732;2022-10-13T18:12:48;28.98;;;10.60;;
72319;SDS011;60269;52.502;16.732;2022-10-13T18:16:21;23.88;;;9.65;;
72319;SDS011;60269;52.502;16.732;2022-10-13T18:19:54;22.30;;;9.47;;
72319;SDS011;60269;52.502;16.732;2022-10-13T18:23:27;24.08;;;8.90;;
72319;SDS011;60269;52.502;16.732;2022-10-13T18:27:00;27.08;;;9.70;;
72319;SDS011;60269;52.502;16.732;2022-10-13T18:30:33;25.83;;;10.90;;
72319;SDS011;60269;52.502;16.732;2022-10-13T18:34:06;25.97;;;10.27;;
72319;SDS011;60269;52.502;16.732;2022-10-13T18:37:39;30.67;;;11.50;;
72319;SDS011;60269;52.502;16.732;2022-10-13T18:41:11;24.80;;;10.88;;
72319;SDS011;60269;52.502;16.732;2022-10-13T18:44:44;27.20;;;10.57;;
72319;SDS011;60269;52.502;16.732;2022-10-13T18:48:15;25.25;;;10.90;;
72319;SDS011;60269;52.502;16.732;2022-10-13T18:51:50;31.80;;;11.23;;
72319;SDS011;60269;52.502;16.732;2022-10-13T18:55:22;30.50;;;10.52;;
72319;SDS011;60269;52.502;16.732;2022-10-13T18:58:55;33.65;;;10.80;;
72319;SDS011;60269;52.502;16.732;2022-10-13T19:02:30;24.33;;;11.10;;
72319;SDS011;60269;52.502;16.732;2022-10-13T19:06:05;27.43;;;10.97;;
72319;SDS011;60269;52.502;16.732;2022-10-13T19:09:38;27.90;;;12.15;;
72319;SDS011;60269;52.502;16.732;2022-10-13T19:13:10;27.52;;;10.50;;
72319;SDS011;60269;52.502;16.732;2022-10-13T19:16:42;24.03;;;10.33;;
72319;SDS011;60269;52.502;16.732;2022-10-13T19:20:14;26.27;;;10.80;;
72319;SDS011;60269;52.502;16.732;2022-10-13T19:23:46;29.67;;;11.65;;
72319;SDS011;60269;52.502;16.732;2022-10-13T19:27:19;28.83;;;11.00;;
72319;SDS011;60269;52.502;16.732;2022-10-13T19:30:54;29.90;;;12.23;;
72319;SDS011;60269;52.502;16.732;2022-10-13T19:34:26;25.53;;;11.57;;
72319;SDS011;60269;52.502;16.732;2022-10-13T19:37:58;27.15;;;11.43;;
72319;SDS011;60269;52.502;16.732;2022-10-13T19:41:31;29.65;;;13.32;;
72319;SDS011;60269;52.502;16.732;2022-10-13T19:45:03;29.83;;;11.53;;
72319;SDS011;60269;52.502;16.732;2022-10-13T19:48:36;30.63;;;12.03;;
72319;SDS011;60269;52.502;16.732;2022-10-13T19:52:07;35.53;;;12.90;;
72319;SDS011;60269;52.502;16.732;2022-10-13T19:55:40;29.48;;;12.52;;
72319;SDS011;60269;52.502;16.732;2022-10-13T19:59:17;33.13;;;12.87;;
72319;SDS011;60269;52.502;16.732;2022-10-13T20:02:49;36.27;;;13.77;;
72319;SDS011;60269;52.502;16.732;2022-10-13T20:06:21;31.83;;;12.93;;
72319;SDS011;60269;52.502;16.732;2022-10-13T20:09:53;28.10;;;13.25;;
72319;SDS011;60269;52.502;16.732;2022-10-13T20:13:25;30.70;;;12.65;;
72319;SDS011;60269;52.502;16.732;2022-10-13T20:16:57;33.70;;;12.30;;
72319;SDS011;60269;52.502;16.732;2022-10-13T20:20:29;31.08;;;12.57;;
72319;SDS011;60269;52.502;16.732;2022-10-13T20:24:02;32.53;;;13.77;;
72319;SDS011;60269;52.502;16.732;2022-10-13T20:27:34;30.03;;;14.13;;
72319;SDS011;60269;52.502;16.732;2022-10-13T20:31:06;28.53;;;13.03;;
72319;SDS011;60269;52.502;16.732;2022-10-13T20:34:38;33.58;;;13.50;;
72319;SDS011;60269;52.502;16.732;2022-10-13T20:38:10;36.13;;;13.80;;
72319;SDS011;60269;52.502;16.732;2022-10-13T20:41:42;26.17;;;13.40;;
72319;SDS011;60269;52.502;16.732;2022-10-13T20:45:14;30.73;;;13.50;;
72319;SDS011;60269;52.502;16.732;2022-10-13T20:48:46;31.02;;;13.27;;
72319;SDS011;60269;52.502;16.732;2022-10-13T20:52:39;29.30;;;13.52;;
72319;SDS011;60269;52.502;16.732;2022-10-13T20:56:14;31.65;;;13.75;;
72319;SDS011;60269;52.502;16.732;2022-10-13T20:59:48;36.23;;;14.20;;
72319;SDS011;60269;52.502;16.732;2022-10-13T21:03:20;34.90;;;14.88;;
72319;SDS011;60269;52.502;16.732;2022-10-13T21:06:54;30.35;;;14.43;;
72319;SDS011;60269;52.502;16.732;2022-10-13T21:10:25;36.00;;;16.52;;
72319;SDS011;60269;52.502;16.732;2022-10-13T21:13:57;40.90;;;17.57;;
72319;SDS011;60269;52.502;16.732;2022-10-13T21:17:29;35.60;;;16.48;;
72319;SDS011;60269;52.502;16.732;2022-10-13T21:21:05;39.47;;;17.50;;
72319;SDS011;60269;52.502;16.732;2022-10-13T21:24:39;39.10;;;17.43;;
72319;SDS011;60269;52.502;16.732;2022-10-13T21:28:11;43.33;;;18.50;;
72319;SDS011;60269;52.502;16.732;2022-10-13T21:31:43;43.20;;;16.95;;
72319;SDS011;60269;52.502;16.732;2022-10-13T21:35:15;40.75;;;17.05;;
72319;SDS011;60269;52.502;16.732;2022-10-13T21:38:49;38.45;;;18.25;;
72319;SDS011;60269;52.502;16.732;2022-10-13T21:42:22;36.73;;;18.13;;
72319;SDS011;60269;52.502;16.732;2022-10-13T21:45:54;38.25;;;18.42;;
72319;SDS011;60269;52.502;16.732;2022-10-13T21:49:26;44.45;;;18.30;;
72319;SDS011;60269;52.502;16.732;2022-10-13T21:52:58;46.90;;;18.37;;
72319;SDS011;60269;52.502;16.732;2022-10-13T21:56:30;47.23;;;18.83;;